Time;durP1;ratioP1;P1;durP2;ratioP2;P2;SDS_P1;SDS_P2;PMS_P1;PMS_P2;Temp;Humidity;BMP_temperature;BMP_pressure;BME280_temperature;BME280_humidity;BME280_pressure;Samples;Min_cycle;Max_cycle;Signal;HPM_P1;HPM_P2
2022/05/26 00:02:59;;;;;;;5.50;2.97;;;;;;;9.62;100.00;99726.94;5042131;28;20106;-90
2022/05/26 00:05:43;;;;;;;3.10;2.85;;;;;;;9.54;100.00;99732.31;5038581;28;20029;-90
2022/05/26 00:08:28;;;;;;;4.75;2.70;;;;;;;9.52;100.00;99746.28;5053157;28;20041;-90
2022/05/26 00:11:18;;;;;;;4.20;3.22;;;;;;;9.45;100.00;99722.03;5053362;28;20040;-91
2022/05/26 00:14:09;;;;;;;4.95;3.50;;;;;;;9.52;100.00;99744.56;5053293;28;20044;-90
2022/05/26 00:16:53;;;;;;;4.50;3.40;;;;;;;9.44;100.00;99748.22;5025198;28;20116;-90
2022/05/26 00:19:38;;;;;;;9.95;4.47;;;;;;;9.25;100.00;99726.84;5052990;28;20048;-91
2022/05/26 00:22:22;;;;;;;6.63;4.00;;;;;;;9.32;100.00;99726.66;5052653;28;20476;-91
2022/05/26 00:25:07;;;;;;;6.75;4.65;;;;;;;9.28;100.00;99719.78;5041985;28;20060;-91
2022/05/26 00:27:51;;;;;;;9.25;4.68;;;;;;;9.16;100.00;99738.34;5039052;28;20711;-91
2022/05/26 00:30:37;;;;;;;6.35;3.78;;;;;;;9.22;100.00;99734.75;5052722;28;20041;-91
2022/05/26 00:33:21;;;;;;;5.03;3.90;;;;;;;9.15;100.00;99720.94;5039376;28;20041;-91
2022/05/26 00:36:09;;;;;;;4.72;3.70;;;;;;;9.17;100.00;99741.84;5053022;28;20503;-91
2022/05/26 00:38:53;;;;;;;4.18;3.40;;;;;;;9.11;100.00;99720.16;5024975;28;20471;-91
2022/05/26 00:41:43;;;;;;;5.45;3.13;;;;;;;9.08;100.00;99732.41;5044867;28;20040;-90
2022/05/26 00:44:29;;;;;;;3.85;3.40;;;;;;;9.01;100.00;99726.47;5052558;28;20059;-91
2022/05/26 00:47:19;;;;;;;4.50;3.45;;;;;;;9.11;100.00;99742.81;5051794;28;20048;-91
2022/05/26 00:50:31;;;;;;;3.92;3.10;;;;;;;9.10;100.00;99741.97;5039197;28;20037;-91
2022/05/26 00:53:22;;;;;;;5.00;3.30;;;;;;;8.96;100.00;99720.44;5038981;28;20041;-91
2022/05/26 00:56:26;;;;;;;6.85;3.17;;;;;;;9.08;100.00;99743.72;5024274;28;20037;-91
2022/05/26 00:59:18;;;;;;;4.13;3.10;;;;;;;8.95;100.00;99730.94;5052704;28;20033;-91
2022/05/26 01:02:02;;;;;;;3.63;2.83;;;;;;;8.99;100.00;99735.22;5031298;28;20656;-91
2022/05/26 01:04:53;;;;;;;4.47;2.83;;;;;;;8.97;100.00;99739.59;5052163;28;20052;-91
2022/05/26 01:07:39;;;;;;;3.35;2.60;;;;;;;9.02;100.00;99750.81;5051729;28;20043;-91
2022/05/26 01:10:24;;;;;;;4.75;2.90;;;;;;;8.89;100.00;99738.00;5051639;28;20063;-91
2022/05/26 01:13:08;;;;;;;2.78;2.55;;;;;;;8.94;100.00;99726.59;5038258;28;20172;-91
2022/05/26 01:16:08;;;;;;;5.53;3.03;;;;;;;8.97;100.00;99740.47;5041025;28;20045;-91
2022/05/26 01:19:01;;;;;;;3.35;3.05;;;;;;;8.88;100.00;99728.44;5051357;28;20037;-90
2022/05/26 01:22:11;;;;;;;3.13;2.78;;;;;;;8.96;100.00;99749.19;5051600;28;20037;-90
2022/05/26 01:25:18;;;;;;;3.33;2.63;;;;;;;9.04;100.00;99743.84;5037710;28;20056;-90
2022/05/26 01:28:27;;;;;;;4.05;2.95;;;;;;;8.95;100.00;99741.41;5051513;28;20480;-90
2022/05/26 01:31:48;;;;;;;5.50;2.78;;;;;;;8.99;100.00;99740.44;5022711;28;20041;-90
2022/05/26 01:35:12;;;;;;;3.40;3.05;;;;;;;8.87;100.00;99731.97;5023083;28;20041;-91
2022/05/26 01:38:34;;;;;;;3.58;2.90;;;;;;;9.01;100.00;99741.28;5023779;28;20037;-90
2022/05/26 01:41:32;;;;;;;3.50;3.20;;;;;;;8.98;100.00;99738.72;5051370;28;20048;-90
2022/05/26 01:44:26;;;;;;;3.33;2.90;;;;;;;8.87;100.00;99703.22;5037457;28;20033;-90
2022/05/26 01:47:26;;;;;;;3.53;2.90;;;;;;;8.98;100.00;99728.28;5050831;28;20103;-90
2022/05/26 01:50:42;;;;;;;3.63;3.13;;;;;;;9.05;100.00;99741.16;5028327;28;20490;-90
2022/05/26 01:53:48;;;;;;;3.63;2.80;;;;;;;9.20;100.00;99741.78;5036752;28;20348;-90
2022/05/26 01:56:47;;;;;;;5.25;3.28;;;;;;;9.25;100.00;99740.75;5028677;28;20098;-90
2022/05/26 01:59:37;;;;;;;4.05;3.65;;;;;;;9.23;100.00;99720.78;5035351;28;20042;-90
2022/05/26 02:02:28;;;;;;;4.88;3.80;;;;;;;9.32;100.00;99718.84;5047953;28;20037;-90
2022/05/26 02:05:17;;;;;;;4.03;3.70;;;;;;;9.50;100.00;99732.41;5050997;28;20403;-90
2022/05/26 02:08:11;;;;;;;4.90;3.85;;;;;;;9.43;100.00;99725.59;5037052;28;20033;-90
2022/05/26 02:11:08;;;;;;;4.70;4.20;;;;;;;9.44;100.00;99716.88;5027023;28;20037;-90
2022/05/26 02:14:00;;;;;;;5.97;4.93;;;;;;;9.57;100.00;99734.84;5050881;28;20100;-90
2022/05/26 02:16:47;;;;;;;6.30;3.95;;;;;;;9.58;100.00;99733.09;5022269;28;20037;-91
2022/05/26 02:19:36;;;;;;;7.30;5.10;;;;;;;9.62;100.00;99741.72;5050347;28;20041;-90
2022/05/26 02:22:49;;;;;;;5.00;4.22;;;;;;;9.60;100.00;99728.69;5022477;28;20029;-89
2022/05/26 02:25:34;;;;;;;4.20;3.80;;;;;;;9.49;100.00;99721.09;5030584;28;20045;-90
2022/05/26 02:28:19;;;;;;;4.32;3.92;;;;;;;9.68;100.00;99726.75;5035826;28;20056;-90
2022/05/26 02:31:04;;;;;;;5.70;4.10;;;;;;;9.70;100.00;99726.75;5050596;28;20037;-90
2022/05/26 02:33:53;;;;;;;4.70;4.20;;;;;;;9.68;100.00;99725.91;5039449;28;20123;-90
2022/05/26 02:36:41;;;;;;;4.57;4.18;;;;;;;9.74;100.00;99746.69;5036644;28;20045;-90
2022/05/26 02:39:25;;;;;;;5.63;3.83;;;;;;;9.71;100.00;99729.31;5041149;28;20056;-90
2022/05/26 02:42:11;;;;;;;4.65;4.18;;;;;;;9.64;100.00;99716.41;5036398;28;20052;-90
2022/05/26 02:44:57;;;;;;;5.97;4.43;;;;;;;9.73;100.00;99726.66;5049798;28;20083;-90
2022/05/26 02:48:23;;;;;;;4.97;4.40;;;;;;;9.79;100.00;99739.63;5050444;28;20036;-90
2022/05/26 02:51:20;;;;;;;5.88;4.30;;;;;;;9.78;100.00;99736.13;4977392;28;20050;-90
2022/05/26 02:54:33;;;;;;;5.00;4.50;;;;;;;9.69;100.00;99733.72;5036482;28;20041;-90
2022/05/26 02:57:25;;;;;;;4.78;4.20;;;;;;;9.47;100.00;99715.03;5027713;28;20056;-90
2022/05/26 03:00:09;;;;;;;4.72;4.07;;;;;;;9.63;100.00;99748.69;5027943;28;20406;-90
2022/05/26 03:03:15;;;;;;;6.47;4.53;;;;;;;9.52;100.00;99738.44;5042598;28;20037;-90
2022/05/26 03:06:18;;;;;;;5.28;4.18;;;;;;;9.40;100.00;99728.28;5036324;28;20041;-91
2022/05/26 03:09:05;;;;;;;4.70;4.03;;;;;;;9.26;100.00;99724.22;5036889;28;20037;-91
2022/05/26 03:11:55;;;;;;;5.38;4.13;;;;;;;9.26;100.00;99724.22;5050371;28;20487;-90
2022/05/26 03:14:40;;;;;;;6.30;4.20;;;;;;;9.31;100.00;99722.34;5050295;28;20467;-91
2022/05/26 03:17:24;;;;;;;5.40;4.60;;;;;;;9.32;100.00;99721.44;5042445;28;20480;-91
2022/05/26 03:20:09;;;;;;;5.68;3.90;;;;;;;9.26;100.00;99721.59;5050735;28;20451;-90
2022/05/26 03:22:55;;;;;;;4.60;3.90;;;;;;;9.29;100.00;99723.25;5050566;28;20064;-91
2022/05/26 03:25:46;;;;;;;4.85;3.97;;;;;;;9.28;100.00;99718.94;5050520;28;20040;-90
2022/05/26 03:28:31;;;;;;;5.25;4.15;;;;;;;9.27;100.00;99712.84;5050812;28;20091;-91
2022/05/26 03:31:15;;;;;;;7.82;3.75;;;;;;;9.38;100.00;99725.69;5053988;28;20044;-91
2022/05/26 03:43:10;;;;;;;4.50;3.97;;;;;;;9.44;100.00;99722.94;5052911;28;19920;-90
2022/05/26 03:45:58;;;;;;;4.45;4.10;;;;;;;9.45;100.00;99713.34;5054099;28;20063;-90
2022/05/26 03:48:42;;;;;;;4.43;3.25;;;;;;;9.58;100.00;99733.09;5031218;28;20050;-90
2022/05/26 03:51:26;;;;;;;4.55;3.60;;;;;;;9.63;100.00;99728.63;5054093;28;20099;-90
2022/05/26 03:54:11;;;;;;;7.30;3.95;;;;;;;9.79;100.00;99737.84;5043572;28;20094;-90
2022/05/26 03:56:56;;;;;;;4.03;3.63;;;;;;;9.84;100.00;99729.88;5054341;28;20037;-90
2022/05/26 03:59:41;;;;;;;4.65;3.55;;;;;;;9.85;100.00;99723.78;5053828;28;20055;-90
2022/05/26 04:02:26;;;;;;;3.45;3.15;;;;;;;10.11;100.00;99725.78;5053907;28;20082;-90
2022/05/26 04:05:12;;;;;;;3.78;3.38;;;;;;;10.75;100.00;99731.13;5054223;28;20048;-90
2022/05/26 04:07:56;;;;;;;4.22;3.75;;;;;;;11.20;100.00;99721.13;5039870;28;20040;-91
2022/05/26 04:10:41;;;;;;;4.53;3.80;;;;;;;11.46;100.00;99725.59;5043069;28;20376;-91
2022/05/26 04:13:28;;;;;;;4.10;3.70;;;;;;;11.80;100.00;99729.84;5025495;28;20033;-90
2022/05/26 04:16:12;;;;;;;3.95;3.60;;;;;;;12.18;100.00;99717.25;5025662;28;20040;-90
2022/05/26 04:18:56;;;;;;;3.45;3.15;;;;;;;12.56;100.00;99731.72;5054099;28;20037;-90
2022/05/26 04:22:15;;;;;;;6.28;3.60;;;;;;;13.14;100.00;99728.81;5045958;28;20503;-90
2022/05/26 04:24:47;;;;;;;3.65;2.95;;;;;;;12.99;100.00;99742.50;5039698;28;20044;-90
2022/05/26 04:27:33;;;;;;;3.28;2.97;;;;;;;12.74;100.00;99740.75;5040582;28;20033;-91
2022/05/26 04:30:17;;;;;;;7.47;3.10;;;;;;;12.80;100.00;99722.16;5038854;28;20060;-90
2022/05/26 04:33:02;;;;;;;3.65;2.83;;;;;;;12.85;100.00;99732.50;5037769;28;20758;-90
2022/05/26 04:35:46;;;;;;;3.20;2.55;;;;;;;12.78;100.00;99736.25;5031118;28;20033;-90
2022/05/26 04:38:32;;;;;;;3.03;2.72;;;;;;;12.55;100.00;99740.53;5043710;28;20041;-91
2022/05/26 04:41:16;;;;;;;6.60;2.80;;;;;;;12.48;100.00;99733.78;5037429;28;20037;-91
2022/05/26 04:44:01;;;;;;;3.22;2.92;;;;;;;12.70;100.00;99740.91;5053298;28;20048;-92
2022/05/26 04:46:45;;;;;;;4.07;3.40;;;;;;;12.55;100.00;99737.06;5039938;28;20060;-92
2022/05/26 04:49:30;;;;;;;4.65;3.60;;;;;;;12.67;100.00;99749.75;5035901;28;20032;-91
2022/05/26 04:52:18;;;;;;;6.15;4.07;;;;;;;12.68;100.00;99745.38;5039740;28;20041;-91
2022/05/26 04:55:04;;;;;;;3.58;3.28;;;;;;;12.80;100.00;99739.66;5025371;28;20037;-92
2022/05/26 04:57:52;;;;;;;6.43;4.15;;;;;;;12.69;100.00;99733.94;5053915;28;20529;-90
2022/05/26 05:00:36;;;;;;;8.82;4.30;;;;;;;12.81;100.00;99742.25;5041473;28;20045;-90
2022/05/26 05:03:20;;;;;;;5.45;4.35;;;;;;;12.89;100.00;99738.50;5045694;28;20033;-90
2022/05/26 05:06:05;;;;;;;4.65;4.10;;;;;;;12.88;100.00;99742.03;5045561;28;20033;-90
2022/05/26 05:08:50;;;;;;;12.75;4.25;;;;;;;12.85;100.00;99749.13;5051253;28;20114;-90
2022/05/26 05:11:34;;;;;;;5.15;4.35;;;;;;;13.08;100.00;99753.56;5052424;28;20033;-90
2022/05/26 05:14:18;;;;;;;8.27;5.32;;;;;;;14.07;100.00;99748.06;5037464;28;20060;-90
2022/05/26 05:17:04;;;;;;;5.57;4.15;;;;;;;14.83;100.00;99751.94;5038200;28;20041;-90
2022/05/26 05:19:49;;;;;;;6.53;4.05;;;;;;;15.48;100.00;99764.91;5052067;28;20055;-90
2022/05/26 05:22:39;;;;;;;7.70;5.28;;;;;;;15.27;100.00;99748.25;5023297;28;20098;-90
2022/05/26 05:25:28;;;;;;;4.28;3.28;;;;;;;15.57;100.00;99770.63;5052245;28;20045;-90
2022/05/26 05:28:26;;;;;;;4.10;3.33;;;;;;;15.67;100.00;99749.97;5043865;28;20033;-91
2022/05/26 05:31:21;;;;;;;3.17;2.70;;;;;;;16.42;100.00;99764.81;5023163;28;20037;-89
2022/05/26 05:34:24;;;;;;;3.45;2.40;;;;;;;16.80;100.00;99760.28;5037741;28;20467;-88
2022/05/26 05:37:09;;;;;;;2.53;1.92;;;;;;;17.42;100.00;99770.25;5050821;28;20095;-89
2022/05/26 05:39:55;;;;;;;2.47;2.28;;;;;;;18.01;100.00;99754.72;5020092;28;20135;-89
2022/05/26 05:42:39;;;;;;;3.42;2.25;;;;;;;17.37;100.00;99774.97;5051416;28;20064;-90
2022/05/26 05:45:24;;;;;;;2.40;2.20;;;;;;;16.59;100.00;99763.97;5042758;28;20036;-89
2022/05/26 05:48:09;;;;;;;3.78;1.98;;;;;;;16.53;100.00;99765.13;5024061;28;20095;-89
2022/05/26 05:50:54;;;;;;;2.67;2.17;;;;;;;16.17;100.00;99751.94;5036754;28;20369;-89
2022/05/26 05:53:39;;;;;;;2.08;1.83;;;;;;;16.54;100.00;99752.75;5051764;28;20044;-89
2022/05/26 05:56:24;;;;;;;1.95;1.73;;;;;;;16.98;100.00;99758.44;5027700;28;20045;-90
2022/05/26 05:59:08;;;;;;;2.60;1.42;;;;;;;17.77;100.00;99759.56;5038484;28;20044;-90
2022/05/26 06:01:52;;;;;;;7.03;2.00;;;;;;;17.91;100.00;99754.38;5044318;28;20502;-90
2022/05/26 06:04:41;;;;;;;3.25;2.15;;;;;;;17.74;100.00;99761.44;5024439;28;20037;-91
2022/05/26 06:07:26;;;;;;;3.22;1.92;;;;;;;16.46;100.00;99753.16;5052034;28;20032;-91
2022/05/26 06:10:13;;;;;;;1.80;1.65;;;;;;;17.27;100.00;99771.94;5052301;28;20048;-89
2022/05/26 06:12:59;;;;;;;2.70;1.52;;;;;;;17.07;100.00;99774.78;5022717;28;20063;-90
2022/05/26 06:15:46;;;;;;;3.83;2.13;;;;;;;17.35;100.00;99766.22;5039918;28;20041;-89
2022/05/26 06:18:46;;;;;;;1.63;1.50;;;;;;;17.27;100.00;99775.44;5049924;28;20033;-90
2022/05/26 06:21:37;;;;;;;4.15;2.53;;;;;;;17.26;100.00;99776.38;5010788;28;20061;-89
2022/05/26 06:24:25;;;;;;;1.98;1.45;;;;;;;17.33;100.00;99768.97;5037056;28;20041;-89
2022/05/26 06:30:19;;;;;;;1.80;1.50;;;;;;;16.65;100.00;99778.69;5051107;28;20059;-89
2022/05/26 06:39:18;;;;;;;1.98;1.20;;;;;;;16.69;100.00;99782.88;5050235;28;20048;-89
2022/05/26 06:42:05;;;;;;;1.38;0.95;;;;;;;17.11;100.00;99778.97;5022436;28;20037;-89
2022/05/26 06:44:51;;;;;;;1.70;1.23;;;;;;;16.93;100.00;99783.44;5040426;28;20037;-90
2022/05/26 06:47:39;;;;;;;1.20;1.10;;;;;;;17.27;100.00;99762.22;5034988;28;20488;-89
2022/05/26 06:50:29;;;;;;;2.55;1.88;;;;;;;16.83;100.00;99783.03;5037329;28;20044;-89
2022/05/26 06:53:20;;;;;;;3.20;1.50;;;;;;;16.82;100.00;99761.03;5015908;28;20067;-88
2022/05/26 06:56:06;;;;;;;2.10;1.30;;;;;;;16.85;100.00;99757.38;5037002;28;20045;-89
2022/05/26 06:58:54;;;;;;;2.97;1.30;;;;;;;17.20;100.00;99759.97;5035239;28;20040;-89
2022/05/26 07:01:38;;;;;;;1.00;0.93;;;;;;;17.37;100.00;99764.38;5044219;28;20101;-91
2022/05/26 07:04:24;;;;;;;4.13;1.70;;;;;;;17.49;100.00;99767.22;5040209;28;20472;-89
2022/05/26 07:07:12;;;;;;;2.08;1.15;;;;;;;17.63;100.00;99761.16;5040560;28;20412;-89
2022/05/26 07:09:56;;;;;;;1.25;0.90;;;;;;;17.29;100.00;99757.69;5026550;28;20049;-90
2022/05/26 07:12:40;;;;;;;3.05;0.90;;;;;;;17.79;100.00;99763.00;5054073;28;20441;-88
2022/05/26 07:15:25;;;;;;;1.15;0.70;;;;;;;18.20;100.00;99745.63;5039645;28;20048;-89
2022/05/26 07:18:10;;;;;;;1.23;0.90;;;;;;;17.90;100.00;99760.59;5039242;28;20044;-88
2022/05/26 07:20:55;;;;;;;1.27;0.75;;;;;;;17.92;100.00;99759.56;5025888;28;20547;-90
2022/05/26 07:23:41;;;;;;;1.88;1.00;;;;;;;18.36;100.00;99763.28;5055019;28;20111;-90
2022/05/26 07:26:26;;;;;;;2.55;0.98;;;;;;;17.67;100.00;99760.03;5054649;28;20052;-90
2022/05/26 07:29:11;;;;;;;3.13;1.35;;;;;;;18.15;100.00;99755.63;5029057;28;20415;-89
2022/05/26 07:31:56;;;;;;;1.05;0.60;;;;;;;18.75;100.00;99760.13;5055210;28;20044;-90
2022/05/26 07:34:41;;;;;;;2.08;0.90;;;;;;;18.55;100.00;99760.41;5045342;28;20037;-90
2022/05/26 07:43:34;;;;;;;1.90;0.77;;;;;;;18.86;100.00;99772.75;5054798;28;20036;-90
2022/05/26 07:46:21;;;;;;;1.40;0.73;;;;;;;18.50;100.00;99773.09;5054163;28;20040;-89
2022/05/26 07:49:14;;;;;;;0.47;0.30;;;;;;;19.11;100.00;99759.72;5012097;28;20044;-91
2022/05/26 07:52:02;;;;;;;1.55;0.70;;;;;;;19.19;100.00;99775.16;5046120;28;20041;-90
2022/05/26 07:54:47;;;;;;;3.55;0.60;;;;;;;18.98;100.00;99757.88;5026765;28;20045;-90
2022/05/26 07:57:32;;;;;;;2.03;0.70;;;;;;;18.63;100.00;99766.97;5032126;28;20057;-90
2022/05/26 08:00:17;;;;;;;2.13;0.63;;;;;;;18.39;100.00;99766.63;5040814;28;20033;-91
2022/05/26 08:03:01;;;;;;;2.75;0.65;;;;;;;19.12;100.00;99769.38;5054939;28;20041;-89
2022/05/26 08:05:46;;;;;;;2.70;0.60;;;;;;;19.02;100.00;99776.19;5017257;28;20045;-91
2022/05/26 08:08:33;;;;;;;3.20;0.73;;;;;;;20.19;100.00;99766.25;5040615;28;20037;-90
2022/05/26 08:11:18;;;;;;;1.35;0.70;;;;;;;19.87;100.00;99757.69;5026349;28;20087;-90
2022/05/26 08:14:11;;;;;;;5.07;0.82;;;;;;;20.60;100.00;99768.81;5039250;28;20163;-91
2022/05/26 08:17:05;;;;;;;1.50;0.55;;;;;;;21.21;100.00;99777.09;5039043;28;20044;-91
2022/05/26 08:19:52;;;;;;;2.65;0.50;;;;;;;21.46;100.00;99747.81;5051787;28;20044;-91
2022/05/26 08:22:37;;;;;;;0.95;0.55;;;;;;;21.65;100.00;99743.84;5027122;28;20041;-90
2022/05/26 08:25:21;;;;;;;1.77;0.45;;;;;;;20.73;100.00;99750.22;5042932;28;20064;-92
2022/05/26 08:28:14;;;;;;;1.02;0.45;;;;;;;21.08;100.00;99746.97;5054696;28;20072;-90
2022/05/26 08:31:00;;;;;;;2.08;0.30;;;;;;;21.64;100.00;99769.66;5023661;28;20049;-90
2022/05/26 08:33:45;;;;;;;2.60;0.38;;;;;;;21.30;100.00;99749.81;5024375;28;20037;-90
2022/05/26 08:36:33;;;;;;;3.08;0.40;;;;;;;21.06;100.00;99756.84;5040704;28;20044;-91
2022/05/26 08:39:18;;;;;;;1.10;0.47;;;;;;;21.08;100.00;99760.28;5043462;28;20510;-91
2022/05/26 08:42:05;;;;;;;2.05;0.40;;;;;;;21.49;100.00;99772.53;5040350;28;20037;-91
2022/05/26 08:44:55;;;;;;;1.55;0.52;;;;;;;21.61;100.00;99750.34;5022166;28;20063;-91
2022/05/26 08:47:42;;;;;;;1.63;0.32;;;;;;;21.62;100.00;99752.91;5051869;28;20483;-91
2022/05/26 08:50:40;;;;;;;4.72;0.65;;;;;;;22.05;100.00;99760.44;5022688;28;20133;-90
2022/05/26 08:53:35;;;;;;;1.33;0.40;;;;;;;21.82;95.40;99764.78;5041364;28;20456;-92
2022/05/26 08:56:25;;;;;;;2.17;0.30;;;;;;;21.64;82.33;99766.09;5024864;28;20033;-90
2022/05/26 08:59:13;;;;;;;1.83;0.45;;;;;;;21.66;84.66;99769.53;5040175;28;20043;-91
2022/05/26 09:02:00;;;;;;;4.20;0.35;;;;;;;21.46;83.72;99784.25;5037923;28;20083;-90
2022/05/26 09:04:45;;;;;;;7.60;1.08;;;;;;;21.63;82.44;99754.59;5027792;28;20071;-91
2022/05/26 09:13:45;;;;;;;3.33;0.28;;;;;;;21.91;82.92;99760.63;5041290;28;20093;-90
2022/05/26 09:16:33;;;;;;;1.15;0.35;;;;;;;21.27;80.84;99768.69;5038765;28;20537;-90
2022/05/26 09:19:22;;;;;;;3.13;0.40;;;;;;;22.59;84.48;99767.16;5033614;28;20037;-90
2022/05/26 09:22:31;;;;;;;6.13;0.45;;;;;;;22.29;77.13;99770.28;5024106;28;20603;-91
2022/05/26 09:25:44;;;;;;;3.20;0.20;;;;;;;22.29;77.50;99773.81;5039955;28;20048;-90
2022/05/26 09:28:40;;;;;;;1.00;0.20;;;;;;;22.05;79.12;99767.59;5034014;28;20057;-92
2022/05/26 09:31:35;;;;;;;1.20;0.30;;;;;;;21.92;79.25;99787.16;5029649;28;20044;-90
2022/05/26 09:34:21;;;;;;;0.40;0.10;;;;;;;22.84;76.66;99779.47;5025552;28;20048;-90
2022/05/26 09:37:07;;;;;;;24.10;1.17;;;;;;;22.01;75.40;99766.97;5025235;28;20033;-90
2022/05/26 09:40:11;;;;;;;2.13;0.20;;;;;;;22.35;75.71;99753.84;5020273;28;20157;-89
2022/05/26 09:43:04;;;;;;;1.48;0.30;;;;;;;22.11;74.97;99752.00;5022436;28;20132;-90
2022/05/26 09:45:53;;;;;;;2.58;0.55;;;;;;;21.68;75.46;99751.63;5009010;28;20049;-91
2022/05/26 09:48:39;;;;;;;1.08;0.22;;;;;;;22.35;74.77;99746.69;5025170;28;20033;-90
2022/05/26 09:51:27;;;;;;;3.20;0.10;;;;;;;22.34;74.35;99758.31;5039730;28;20120;-89
2022/05/26 09:54:33;;;;;;;2.23;0.47;;;;;;;21.92;71.80;99746.31;5027302;28;20153;-90
2022/05/26 09:57:20;;;;;;;0.10;0.10;;;;;;;21.59;75.68;99781.59;5022622;28;20068;-90
2022/05/26 10:00:47;;;;;;;1.30;0.20;;;;;;;22.36;74.63;99777.75;5023390;28;20048;-89
2022/05/26 10:03:48;;;;;;;4.88;0.20;;;;;;;23.06;74.96;99776.91;5035009;28;20056;-89
2022/05/26 10:06:42;;;;;;;0.85;0.20;;;;;;;22.36;71.80;99777.75;5022704;28;20075;-90
2022/05/26 10:10:04;;;;;;;3.85;0.20;;;;;;;22.96;74.10;99740.34;5024412;28;20044;-89
2022/05/26 10:13:18;;;;;;;2.85;0.22;;;;;;;23.13;73.93;99769.25;5035215;28;20088;-90
2022/05/26 10:16:11;;;;;;;1.50;0.20;;;;;;;22.92;71.87;99784.25;5037233;28;20036;-90
2022/05/26 10:19:02;;;;;;;1.02;0.20;;;;;;;23.15;69.51;99783.34;5026349;28;20048;-91
2022/05/26 10:22:00;;;;;;;0.75;0.10;;;;;;;22.63;70.88;99761.47;5022255;28;20092;-89
2022/05/26 10:25:14;;;;;;;0.88;0.20;;;;;;;22.28;76.10;99776.59;5024633;28;20044;-91
2022/05/26 10:28:35;;;;;;;2.60;0.20;;;;;;;21.96;74.38;99789.59;5031342;28;20040;-90
2022/05/26 10:31:53;;;;;;;0.85;0.10;;;;;;;21.97;76.92;99780.63;5023481;28;20114;-90
2022/05/26 10:35:10;;;;;;;2.50;0.10;;;;;;;21.23;76.64;99792.03;5051943;28;20158;-90
2022/05/26 10:38:25;;;;;;;1.83;0.10;;;;;;;20.67;77.89;99774.59;5048240;28;20057;-90
2022/05/26 10:41:15;;;;;;;1.42;0.13;;;;;;;21.06;79.12;99786.13;5006167;28;20057;-90
2022/05/26 10:44:21;;;;;;;1.00;0.22;;;;;;;21.36;76.12;99764.56;5019157;28;20535;-89
2022/05/26 10:47:16;;;;;;;4.20;0.20;;;;;;;22.81;70.46;99780.59;5037107;28;20041;-91
2022/05/26 10:50:29;;;;;;;2.00;0.20;;;;;;;21.59;72.01;99786.91;5039728;28;20037;-90
2022/05/26 10:53:47;;;;;;;3.38;0.20;;;;;;;22.33;73.15;99764.63;5037799;28;20048;-90
2022/05/26 10:56:43;;;;;;;0.40;0.20;;;;;;;22.28;73.27;99781.94;5049888;28;20036;-90
2022/05/26 10:59:39;;;;;;;7.10;0.52;;;;;;;22.47;68.91;99770.75;5020724;28;20053;-90
2022/05/26 11:02:58;;;;;;;2.08;0.10;;;;;;;21.19;73.08;99797.69;5042646;28;20037;-91
2022/05/26 11:06:23;;;;;;;3.15;0.10;;;;;;;21.06;74.25;99788.81;5043537;28;20033;-90
2022/05/26 11:09:30;;;;;;;0.55;0.10;;;;;;;21.29;75.47;99790.75;5037259;28;20041;-90
2022/05/26 11:12:32;;;;;;;1.42;0.10;;;;;;;21.58;75.07;99802.06;5037591;28;20033;-89
2022/05/26 11:18:33;;;;;;;0.75;0.30;;;;;;;22.37;74.26;99784.78;5036953;28;20049;-91
2022/05/26 11:21:21;;;;;;;2.08;0.30;;;;;;;21.87;73.59;99791.09;5035467;28;20041;-90
2022/05/26 11:24:10;;;;;;;0.52;0.10;;;;;;;21.37;75.60;99774.25;5037422;28;20044;-91
2022/05/26 11:27:02;;;;;;;1.80;0.20;;;;;;;20.87;76.02;99781.25;5051693;28;20033;-91
2022/05/26 11:30:01;;;;;;;0.98;0.15;;;;;;;20.94;74.93;99790.50;5050630;28;20033;-90
2022/05/26 11:36:10;;;;;;;0.57;0.00;;;;;;;21.47;73.69;99794.81;5050573;28;20112;-90
2022/05/26 11:38:55;;;;;;;4.13;0.30;;;;;;;21.44;73.94;99780.84;5030917;28;20044;-90
2022/05/26 11:42:02;;;;;;;0.90;0.10;;;;;;;21.47;74.74;99789.47;5022128;28;20041;-90
2022/05/26 11:44:57;;;;;;;0.90;0.20;;;;;;;22.39;72.71;99788.19;5036280;28;20041;-89
2022/05/26 11:48:01;;;;;;;2.63;0.10;;;;;;;21.88;72.35;99791.00;5036122;28;20182;-89
2022/05/26 11:50:48;;;;;;;0.70;0.20;;;;;;;21.56;72.06;99792.47;5053599;28;20091;-90
2022/05/26 11:53:41;;;;;;;4.38;0.10;;;;;;;21.61;72.15;99796.50;5027206;28;20044;-90
2022/05/26 11:56:27;;;;;;;2.83;0.20;;;;;;;20.86;74.63;99788.34;5039368;28;20092;-89
2022/05/26 11:59:32;;;;;;;1.42;0.10;;;;;;;20.95;74.43;99797.53;5053664;28;20041;-90
2022/05/26 12:02:30;;;;;;;2.95;0.10;;;;;;;20.18;75.86;99781.34;5054009;28;20059;-90
2022/05/26 12:05:31;;;;;;;2.40;0.10;;;;;;;19.59;80.72;99801.91;5027074;28;20084;-89
2022/05/26 12:08:24;;;;;;;3.05;0.20;;;;;;;19.53;81.58;99791.66;5032442;28;20037;-90
2022/05/26 12:11:10;;;;;;;2.15;0.20;;;;;;;19.49;80.96;99777.72;5016209;28;20057;-90
2022/05/26 12:14:03;;;;;;;0.22;0.00;;;;;;;19.29;80.30;99775.44;5030371;28;20053;-89
2022/05/26 12:16:48;;;;;;;1.27;0.10;;;;;;;19.52;78.60;99785.50;5031376;28;20040;-89
2022/05/26 12:19:41;;;;;;;3.10;0.20;;;;;;;20.25;78.07;99785.31;5048438;28;20045;-90
2022/05/26 12:22:37;;;;;;;2.08;0.20;;;;;;;21.66;74.66;99783.69;5040503;28;20033;-91
2022/05/26 12:25:25;;;;;;;1.20;0.40;;;;;;;21.39;73.31;99797.16;5039873;28;20043;-90
2022/05/26 12:28:15;;;;;;;1.75;0.20;;;;;;;20.69;75.70;99804.63;5053916;28;20032;-91
2022/05/26 12:31:00;;;;;;;2.38;0.10;;;;;;;21.49;73.15;99793.88;5039241;28;20381;-90
2022/05/26 12:33:50;;;;;;;1.27;0.30;;;;;;;22.31;73.47;99785.22;5038192;28;20029;-90
2022/05/26 12:36:46;;;;;;;5.78;0.10;;;;;;;22.06;71.98;99774.63;5030031;28;20480;-90
2022/05/26 12:39:47;;;;;;;0.70;0.15;;;;;;;21.82;71.30;99777.28;5053733;28;20032;-90
2022/05/26 12:42:49;;;;;;;0.25;0.08;;;;;;;22.28;70.22;99764.13;5053097;28;20037;-90
2022/05/26 12:45:49;;;;;;;1.45;0.10;;;;;;;22.99;70.18;99762.31;5052437;28;20048;-90
2022/05/26 12:49:09;;;;;;;2.28;0.15;;;;;;;22.32;70.68;99772.75;5053371;28;20476;-90
2022/05/26 12:52:10;;;;;;;3.08;0.35;;;;;;;21.73;71.54;99751.28;4992522;28;20141;-89
2022/05/26 12:55:30;;;;;;;0.80;0.10;;;;;;;21.51;71.02;99750.13;5006599;28;20045;-91
2022/05/26 12:58:21;;;;;;;2.60;0.30;;;;;;;21.03;75.18;99752.63;5017188;28;20053;-90
2022/05/26 13:01:12;;;;;;;0.30;0.00;;;;;;;20.89;73.50;99761.53;5045671;28;20041;-90
2022/05/26 13:04:08;;;;;;;0.88;0.10;;;;;;;20.30;75.13;99758.41;5049606;28;20036;-90
2022/05/26 13:06:54;;;;;;;2.58;0.20;;;;;;;20.15;76.05;99752.31;5032182;28;20064;-91
2022/05/26 13:09:47;;;;;;;2.10;0.03;;;;;;;19.91;76.02;99780.47;5025665;28;20063;-91
2022/05/26 13:12:32;;;;;;;2.03;0.10;;;;;;;20.12;74.71;99773.78;5025875;28;20041;-89
2022/05/26 13:15:25;;;;;;;1.70;0.20;;;;;;;20.26;74.79;99787.00;5052976;28;20479;-90
2022/05/26 13:18:24;;;;;;;7.78;0.20;;;;;;;20.13;72.98;99774.63;5023210;28;20547;-89
2022/05/26 13:21:22;;;;;;;2.58;0.30;;;;;;;20.28;74.24;99771.81;5028232;28;20527;-90
2022/05/26 13:24:23;;;;;;;3.13;0.25;;;;;;;20.34;74.86;99777.66;5038075;28;20069;-89
2022/05/26 13:27:10;;;;;;;3.33;1.50;;;;;;;20.57;70.57;99754.88;5036703;28;20076;-89
2022/05/26 13:33:07;;;;;;;4.05;0.30;;;;;;;21.26;69.63;99768.81;5038587;28;20388;-91
2022/05/26 13:33:11;;;;;;;3.85;0.30;;;;;;;21.53;70.09;99761.56;5042116;28;20091;-90
2022/05/26 13:36:01;;;;;;;1.67;0.10;;;;;;;21.51;69.97;99767.94;5031881;28;20047;-89
2022/05/26 13:38:46;;;;;;;1.35;0.82;;;;;;;21.53;72.63;99750.91;5022234;28;20041;-91
2022/05/26 13:41:31;;;;;;;0.35;0.20;;;;;;;21.64;70.66;99747.44;5044828;28;20049;-90
2022/05/26 13:44:23;;;;;;;0.65;0.10;;;;;;;21.37;73.78;99759.13;5051486;28;20052;-90
2022/05/26 13:47:12;;;;;;;2.20;0.20;;;;;;;21.35;70.90;99762.84;5038364;28;20071;-91
2022/05/26 13:50:07;;;;;;;1.00;0.15;;;;;;;20.48;71.55;99741.22;5043447;28;20078;-90
2022/05/26 13:52:52;;;;;;;2.25;0.20;;;;;;;20.55;72.43;99749.69;5022247;28;20045;-89
2022/05/26 13:55:36;;;;;;;4.45;0.20;;;;;;;20.89;72.59;99742.91;5036802;28;20502;-89
2022/05/26 13:58:23;;;;;;;0.45;0.20;;;;;;;21.31;72.65;99746.19;5022534;28;20132;-91
2022/05/26 14:01:09;;;;;;;1.83;0.55;;;;;;;21.31;71.04;99724.88;5051288;28;20029;-90
2022/05/26 14:04:01;;;;;;;0.93;0.30;;;;;;;21.30;70.92;99757.81;5036325;28;20033;-91
2022/05/26 14:06:46;;;;;;;1.63;0.10;;;;;;;21.70;71.37;99731.03;5031245;28;20037;-90